Time;durP1;ratioP1;P1;durP2;ratioP2;P2;SDS_P1;SDS_P2;PMS_P1;PMS_P2;Temp;Humidity;BMP_temperature;BMP_pressure;BME280_temperature;BME280_humidity;BME280_pressure;Samples;Min_cycle;Max_cycle;Signal;HPM_P1;HPM_P2
2023/12/21 00:01:20;;;;;;;;;;;22.20;33.50;;;;;;5052516;28;19925;-58
2023/12/21 00:03:47;;;;;;;;;;;22.30;33.60;;;;;;5052384;28;19931;-58
2023/12/21 00:06:14;;;;;;;;;;;22.20;33.50;;;;;;5035102;28;19932;-57
2023/12/21 00:08:41;;;;;;;;;;;22.30;33.60;;;;;;5052053;28;19924;-58
2023/12/21 00:11:08;;;;;;;;;;;22.30;33.60;;;;;;5034867;28;19975;-58
2023/12/21 00:13:35;;;;;;;;;;;22.30;33.60;;;;;;5052163;28;19931;-58
2023/12/21 00:16:02;;;;;;;;;;;22.20;33.50;;;;;;5034931;28;19929;-58
2023/12/21 00:18:29;;;;;;;;;;;22.30;33.60;;;;;;5051949;28;19929;-58
2023/12/21 00:20:57;;;;;;;;;;;22.30;33.60;;;;;;5052120;28;20290;-58
2023/12/21 00:23:23;;;;;;;;;;;22.30;33.60;;;;;;5052186;28;19970;-58
2023/12/21 00:25:50;;;;;;;;;;;22.20;33.50;;;;;;5055769;28;20378;-58
2023/12/21 00:28:17;;;;;;;;;;;22.30;33.60;;;;;;5055775;28;20382;-57
2023/12/21 00:30:44;;;;;;;;;;;22.20;33.50;;;;;;5055596;28;19924;-58
2023/12/21 00:33:11;;;;;;;;;;;22.20;33.50;;;;;;5038100;28;20413;-58
2023/12/21 00:35:38;;;;;;;;;;;22.20;33.50;;;;;;5055710;28;20378;-58
2023/12/21 00:38:05;;;;;;;;;;;22.20;33.50;;;;;;5055562;28;19924;-58
2023/12/21 00:40:32;;;;;;;;;;;22.20;33.50;;;;;;5055856;28;19928;-58
2023/12/21 00:42:59;;;;;;;;;;;22.20;33.50;;;;;;5055749;28;19983;-58
2023/12/21 00:45:26;;;;;;;;;;;22.20;33.60;;;;;;5055921;28;19964;-58
2023/12/21 00:47:54;;;;;;;;;;;22.20;33.60;;;;;;5055756;28;19925;-58
2023/12/21 00:50:21;;;;;;;;;;;22.20;33.50;;;;;;5055567;28;20289;-58
2023/12/21 00:52:48;;;;;;;;;;;22.20;33.50;;;;;;5055456;28;19931;-58
2023/12/21 00:55:15;;;;;;;;;;;22.20;33.50;;;;;;5055527;28;19929;-58
2023/12/21 00:57:42;;;;;;;;;;;22.20;33.40;;;;;;5055252;28;19928;-58
2023/12/21 01:00:09;;;;;;;;;;;22.20;33.40;;;;;;5055159;28;20381;-58
2023/12/21 01:02:36;;;;;;;;;;;22.20;33.40;;;;;;5055872;28;19947;-58
2023/12/21 01:05:04;;;;;;;;;;;22.10;33.40;;;;;;5055126;28;19932;-58
2023/12/21 01:07:31;;;;;;;;;;;22.10;33.40;;;;;;5055023;28;19972;-58
2023/12/21 01:09:58;;;;;;;;;;;22.10;33.40;;;;;;5055296;28;19931;-58
2023/12/21 01:12:25;;;;;;;;;;;22.10;33.40;;;;;;5055342;28;19950;-58
2023/12/21 01:14:52;;;;;;;;;;;22.10;33.40;;;;;;5055129;28;20377;-58
2023/12/21 01:17:19;;;;;;;;;;;22.10;33.40;;;;;;5037044;28;19924;-57
2023/12/21 01:19:46;;;;;;;;;;;22.10;33.40;;;;;;5054694;28;20332;-57
2023/12/21 01:22:13;;;;;;;;;;;22.10;33.40;;;;;;5055396;28;19982;-58
2023/12/21 01:24:40;;;;;;;;;;;22.10;33.40;;;;;;5054513;28;19928;-58
2023/12/21 01:27:07;;;;;;;;;;;22.10;33.40;;;;;;5054932;28;19931;-58
2023/12/21 01:29:47;;;;;;;;;;;22.10;33.40;;;;;;5038840;28;20011;-57
2023/12/21 01:32:14;;;;;;;;;;;22.10;33.40;;;;;;5054894;28;19976;-57
2023/12/21 01:34:41;;;;;;;;;;;22.10;33.40;;;;;;5054815;28;20259;-57
2023/12/21 01:37:08;;;;;;;;;;;22.10;33.40;;;;;;5054798;28;19925;-57
2023/12/21 01:39:35;;;;;;;;;;;22.10;33.40;;;;;;5054379;28;19932;-58
2023/12/21 01:42:03;;;;;;;;;;;22.10;34.00;;;;;;5054582;28;19979;-57
2023/12/21 01:44:29;;;;;;;;;;;22.10;33.40;;;;;;5054567;28;19932;-58
2023/12/21 01:46:57;;;;;;;;;;;22.10;33.50;;;;;;5054364;28;19975;-57
2023/12/21 01:49:24;;;;;;;;;;;22.10;33.40;;;;;;5036884;28;20290;-58
2023/12/21 01:51:52;;;;;;;;;;;22.10;33.40;;;;;;5054093;28;20260;-58
2023/12/21 01:54:19;;;;;;;;;;;22.10;33.40;;;;;;5036950;28;19925;-57
2023/12/21 01:56:46;;;;;;;;;;;22.10;33.40;;;;;;5053999;28;19967;-58
2023/12/21 01:59:13;;;;;;;;;;;22.00;33.30;;;;;;5054118;28;19929;-57
2023/12/21 02:01:41;;;;;;;;;;;22.10;33.30;;;;;;5053915;28;19925;-57
2023/12/21 02:04:08;;;;;;;;;;;22.10;33.30;;;;;;5053916;28;19971;-57
2023/12/21 02:06:35;;;;;;;;;;;22.10;33.30;;;;;;5054145;28;20258;-57
2023/12/21 02:09:02;;;;;;;;;;;22.00;33.30;;;;;;5055866;28;20016;-57
2023/12/21 02:11:29;;;;;;;;;;;22.00;33.30;;;;;;5073582;28;19931;-57
2023/12/21 02:13:56;;;;;;;;;;;22.10;33.40;;;;;;5073705;28;19932;-57
2023/12/21 02:16:26;;;;;;;;;;;22.00;33.30;;;;;;5073688;28;19978;-57
2023/12/21 02:18:53;;;;;;;;;;;22.00;33.30;;;;;;5073450;28;20011;-58
2023/12/21 02:21:21;;;;;;;;;;;22.00;33.30;;;;;;5073677;28;19924;-58
2023/12/21 02:23:49;;;;;;;;;;;22.00;33.40;;;;;;5073457;28;19978;-58
2023/12/21 02:26:18;;;;;;;;;;;22.00;33.40;;;;;;5056031;28;19971;-58
2023/12/21 02:28:45;;;;;;;;;;;22.00;33.40;;;;;;5073298;28;19924;-57
2023/12/21 02:31:12;;;;;;;;;;;22.00;33.40;;;;;;5073465;28;19924;-57
2023/12/21 02:33:39;;;;;;;;;;;22.00;33.40;;;;;;5073107;28;19931;-57
2023/12/21 02:36:07;;;;;;;;;;;22.00;33.40;;;;;;5073426;28;20301;-57
2023/12/21 02:38:34;;;;;;;;;;;22.00;33.40;;;;;;5073152;28;19936;-58
2023/12/21 02:41:01;;;;;;;;;;;22.00;33.40;;;;;;5073188;28;19963;-58
2023/12/21 02:43:28;;;;;;;;;;;22.00;33.40;;;;;;5073470;28;19978;-58
2023/12/21 02:45:55;;;;;;;;;;;22.00;33.40;;;;;;5073306;28;19970;-57
2023/12/21 02:48:22;;;;;;;;;;;22.00;33.40;;;;;;5072725;28;20385;-58
2023/12/21 02:50:48;;;;;;;;;;;22.00;33.40;;;;;;5073097;28;19924;-58
2023/12/21 02:53:16;;;;;;;;;;;22.00;33.40;;;;;;5072920;28;19972;-58
2023/12/21 02:55:43;;;;;;;;;;;22.00;33.30;;;;;;5073419;28;19951;-57
2023/12/21 02:58:10;;;;;;;;;;;21.90;33.30;;;;;;5055309;28;19924;-58
2023/12/21 03:00:37;;;;;;;;;;;22.00;33.30;;;;;;5073106;28;19932;-58
2023/12/21 03:03:04;;;;;;;;;;;21.90;33.20;;;;;;5073103;28;20278;-58
2023/12/21 03:05:31;;;;;;;;;;;21.90;33.20;;;;;;5072777;28;19947;-58
2023/12/21 03:07:58;;;;;;;;;;;21.90;33.30;;;;;;5054345;28;20337;-58
2023/12/21 03:10:25;;;;;;;;;;;22.00;33.30;;;;;;5073276;28;19924;-57
2023/12/21 03:12:52;;;;;;;;;;;21.90;33.30;;;;;;5072637;28;19929;-57
2023/12/21 03:15:19;;;;;;;;;;;21.90;33.30;;;;;;5073215;28;19995;-57
2023/12/21 03:17:47;;;;;;;;;;;21.90;33.30;;;;;;5073140;28;19925;-57
2023/12/21 03:20:14;;;;;;;;;;;21.90;33.30;;;;;;5072557;28;19976;-57
2023/12/21 03:22:41;;;;;;;;;;;21.90;33.30;;;;;;5073289;28;19931;-57
2023/12/21 03:25:08;;;;;;;;;;;21.90;33.30;;;;;;5072836;28;20262;-57
2023/12/21 03:27:36;;;;;;;;;;;21.90;33.30;;;;;;5072723;28;19924;-58
2023/12/21 03:30:03;;;;;;;;;;;21.90;33.30;;;;;;5073268;28;19928;-57
2023/12/21 03:32:30;;;;;;;;;;;21.90;33.30;;;;;;5054696;28;19993;-57
2023/12/21 03:34:57;;;;;;;;;;;21.90;33.30;;;;;;5072547;28;19925;-58
2023/12/21 03:37:28;;;;;;;;;;;21.90;33.30;;;;;;5072789;28;19928;-58
2023/12/21 03:39:56;;;;;;;;;;;21.90;33.30;;;;;;5072865;28;19924;-58
2023/12/21 03:42:23;;;;;;;;;;;21.90;33.30;;;;;;5072944;28;19928;-58
2023/12/21 03:44:50;;;;;;;;;;;21.90;33.30;;;;;;5072139;28;19931;-57
2023/12/21 03:47:17;;;;;;;;;;;21.90;33.30;;;;;;5054698;28;19928;-57
2023/12/21 03:49:44;;;;;;;;;;;21.90;33.30;;;;;;5072458;28;19939;-58
2023/12/21 03:52:11;;;;;;;;;;;21.90;33.30;;;;;;5072359;28;19931;-57
2023/12/21 03:54:38;;;;;;;;;;;21.80;33.20;;;;;;5072569;28;20285;-57
2023/12/21 03:57:05;;;;;;;;;;;21.90;33.30;;;;;;5066114;28;19925;-58
2023/12/21 03:59:32;;;;;;;;;;;21.90;33.30;;;;;;5061703;28;20340;-57
2023/12/21 04:01:59;;;;;;;;;;;21.90;33.20;;;;;;5056183;28;19931;-57
2023/12/21 04:04:26;;;;;;;;;;;21.90;33.20;;;;;;5056668;28;19932;-58
2023/12/21 04:06:54;;;;;;;;;;;21.90;33.20;;;;;;5056451;28;20027;-57
2023/12/21 04:09:21;;;;;;;;;;;21.80;33.20;;;;;;5056242;28;19924;-58
2023/12/21 04:11:48;;;;;;;;;;;21.80;33.20;;;;;;5054744;28;19986;-58
2023/12/21 04:14:15;;;;;;;;;;;21.80;33.20;;;;;;5066455;28;19924;-57
2023/12/21 04:16:42;;;;;;;;;;;21.80;33.30;;;;;;5075375;28;19979;-58
2023/12/21 04:19:09;;;;;;;;;;;21.80;33.20;;;;;;5075725;28;19924;-58
2023/12/21 04:21:36;;;;;;;;;;;21.80;33.30;;;;;;5057708;28;19924;-58
2023/12/21 04:24:03;;;;;;;;;;;21.80;33.20;;;;;;5075273;28;19928;-58
2023/12/21 04:26:30;;;;;;;;;;;21.80;33.20;;;;;;5075792;28;19994;-57
2023/12/21 04:28:57;;;;;;;;;;;21.80;33.20;;;;;;5075270;28;19924;-57
2023/12/21 04:31:24;;;;;;;;;;;21.80;33.20;;;;;;5075149;28;20344;-57
2023/12/21 04:33:53;;;;;;;;;;;21.80;33.20;;;;;;5069291;28;19925;-57
2023/12/21 04:36:20;;;;;;;;;;;21.80;33.20;;;;;;5058063;28;19978;-57
2023/12/21 04:38:52;;;;;;;;;;;21.80;33.20;;;;;;5074622;28;19932;-58
2023/12/21 04:41:19;;;;;;;;;;;21.80;32.90;;;;;;5057951;28;19924;-57
2023/12/21 04:43:46;;;;;;;;;;;21.80;32.80;;;;;;5074850;28;20392;-58
2023/12/21 04:46:13;;;;;;;;;;;21.80;32.60;;;;;;5074930;28;19978;-58
2023/12/21 04:48:40;;;;;;;;;;;21.80;32.60;;;;;;5055270;28;19932;-57
2023/12/21 04:51:13;;;;;;;;;;;21.80;32.50;;;;;;5037738;28;20328;-57
2023/12/21 04:53:43;;;;;;;;;;;21.80;32.50;;;;;;5055066;28;19925;-57
2023/12/21 04:56:10;;;;;;;;;;;21.80;32.50;;;;;;5055704;28;19924;-58
2023/12/21 04:58:38;;;;;;;;;;;21.90;32.50;;;;;;5054980;28;19971;-57
2023/12/21 05:01:05;;;;;;;;;;;21.90;32.40;;;;;;5044169;28;19928;-57
2023/12/21 05:03:33;;;;;;;;;;;21.90;32.40;;;;;;5065602;28;19924;-57
2023/12/21 05:06:03;;;;;;;;;;;22.00;32.30;;;;;;5060292;28;19925;-58
2023/12/21 05:08:30;;;;;;;;;;;22.00;32.30;;;;;;5055233;28;20337;-58
2023/12/21 05:10:57;;;;;;;;;;;22.00;32.10;;;;;;5064618;28;20282;-58
2023/12/21 05:13:24;;;;;;;;;;;22.10;32.10;;;;;;5074959;28;19932;-58
2023/12/21 05:15:51;;;;;;;;;;;22.10;32.00;;;;;;5068342;28;19928;-58
2023/12/21 05:18:18;;;;;;;;;;;22.10;31.90;;;;;;5055014;28;20289;-58
2023/12/21 05:20:45;;;;;;;;;;;22.20;31.90;;;;;;5061073;28;20254;-57
2023/12/21 05:23:12;;;;;;;;;;;22.20;31.80;;;;;;5054894;28;20271;-58
2023/12/21 05:25:39;;;;;;;;;;;22.30;31.70;;;;;;5054697;28;19925;-58
2023/12/21 05:28:06;;;;;;;;;;;22.30;31.60;;;;;;5054636;28;19925;-58
2023/12/21 05:30:33;;;;;;;;;;;22.30;31.50;;;;;;5054896;28;20313;-58
2023/12/21 05:33:00;;;;;;;;;;;22.40;31.50;;;;;;5054658;28;19925;-58
2023/12/21 05:35:27;;;;;;;;;;;22.50;31.40;;;;;;5056642;28;19924;-58
2023/12/21 05:37:54;;;;;;;;;;;22.50;31.30;;;;;;5056622;28;19936;-57
2023/12/21 05:40:22;;;;;;;;;;;22.50;31.20;;;;;;5074364;28;19924;-58
2023/12/21 05:42:49;;;;;;;;;;;22.60;31.20;;;;;;5074196;28;19970;-57
2023/12/21 05:45:17;;;;;;;;;;;22.60;31.10;;;;;;5073537;28;19978;-58
2023/12/21 05:47:43;;;;;;;;;;;22.60;31.00;;;;;;5062996;28;20326;-58
2023/12/21 05:50:10;;;;;;;;;;;22.70;31.00;;;;;;5073242;28;19924;-57
2023/12/21 05:52:37;;;;;;;;;;;22.70;30.90;;;;;;5074280;28;19924;-57
2023/12/21 05:55:05;;;;;;;;;;;22.70;30.80;;;;;;5073874;28;19925;-58
2023/12/21 05:57:32;;;;;;;;;;;22.80;30.70;;;;;;5069046;28;19983;-58
2023/12/21 05:59:59;;;;;;;;;;;22.80;30.70;;;;;;5062975;28;19932;-58
2023/12/21 06:02:26;;;;;;;;;;;22.90;30.70;;;;;;5065325;28;19924;-58
2023/12/21 06:04:53;;;;;;;;;;;22.90;30.50;;;;;;5070613;28;20445;-58
2023/12/21 06:07:20;;;;;;;;;;;23.00;30.50;;;;;;5073656;28;19928;-57
2023/12/21 06:09:47;;;;;;;;;;;23.00;30.50;;;;;;5066328;28;19925;-58
2023/12/21 06:12:14;;;;;;;;;;;23.00;30.40;;;;;;5051912;28;19986;-58
2023/12/21 06:14:41;;;;;;;;;;;23.10;30.40;;;;;;5076945;28;20447;-58
2023/12/21 06:17:09;;;;;;;;;;;23.10;30.60;;;;;;5067611;28;19963;-58
2023/12/21 06:19:36;;;;;;;;;;;23.10;30.50;;;;;;5069466;28;20431;-58
2023/12/21 06:22:05;;;;;;;;;;;23.10;30.50;;;;;;5066069;28;19932;-57
2023/12/21 06:24:32;;;;;;;;;;;23.20;30.40;;;;;;5065008;28;19924;-56
2023/12/21 06:26:59;;;;;;;;;;;23.20;30.30;;;;;;5070775;28;20408;-57
2023/12/21 06:29:26;;;;;;;;;;;23.20;30.40;;;;;;5068012;28;19964;-59
2023/12/21 06:31:53;;;;;;;;;;;23.30;30.40;;;;;;5073493;28;20328;-57
2023/12/21 06:34:20;;;;;;;;;;;23.30;30.40;;;;;;5067184;28;20015;-57
2023/12/21 06:36:47;;;;;;;;;;;23.40;30.50;;;;;;5063443;28;20285;-56
2023/12/21 06:39:14;;;;;;;;;;;23.40;30.50;;;;;;5064670;28;19924;-57
2023/12/21 06:41:41;;;;;;;;;;;23.40;30.60;;;;;;5070791;28;19925;-56
2023/12/21 06:44:10;;;;;;;;;;;23.50;30.70;;;;;;5070364;28;19993;-53
2023/12/21 06:46:37;;;;;;;;;;;23.60;30.70;;;;;;5063626;28;20015;-55
2023/12/21 06:49:04;;;;;;;;;;;23.60;30.30;;;;;;5071530;28;19929;-56
2023/12/21 06:51:32;;;;;;;;;;;23.70;30.30;;;;;;5066478;28;20377;-54
2023/12/21 06:53:58;;;;;;;;;;;23.70;30.20;;;;;;5067191;28;19924;-55
2023/12/21 06:56:25;;;;;;;;;;;23.70;30.20;;;;;;5065929;28;19929;-56
2023/12/21 06:59:01;;;;;;;;;;;23.70;30.00;;;;;;5053940;28;19925;-55
2023/12/21 07:01:28;;;;;;;;;;;23.70;30.20;;;;;;5064158;28;19924;-56
2023/12/21 07:03:55;;;;;;;;;;;23.80;30.40;;;;;;5064368;28;19935;-57
2023/12/21 07:06:22;;;;;;;;;;;23.80;30.50;;;;;;5070085;28;19947;-56
2023/12/21 07:08:49;;;;;;;;;;;23.90;30.40;;;;;;5069775;28;19955;-56
2023/12/21 07:11:17;;;;;;;;;;;23.90;30.40;;;;;;5067817;28;19931;-58
2023/12/21 07:13:44;;;;;;;;;;;24.00;30.20;;;;;;5067130;28;20325;-63
2023/12/21 07:16:12;;;;;;;;;;;24.00;30.20;;;;;;5066818;28;20360;-56
2023/12/21 07:18:39;;;;;;;;;;;24.10;30.20;;;;;;5069052;28;19974;-57
2023/12/21 07:21:06;;;;;;;;;;;24.10;30.30;;;;;;5066989;28;19956;-57
2023/12/21 07:23:33;;;;;;;;;;;24.20;30.30;;;;;;5067678;28;20378;-59
2023/12/21 07:26:00;;;;;;;;;;;24.20;30.30;;;;;;5068456;28;19968;-59
2023/12/21 07:28:28;;;;;;;;;;;24.30;30.30;;;;;;5067089;28;20611;-59
2023/12/21 07:30:55;;;;;;;;;;;24.30;30.20;;;;;;5066789;28;20592;-56
2023/12/21 07:33:23;;;;;;;;;;;24.30;30.20;;;;;;5066963;28;19966;-56
2023/12/21 07:35:50;;;;;;;;;;;24.40;30.20;;;;;;5070115;28;19929;-55
2023/12/21 07:38:17;;;;;;;;;;;24.40;30.00;;;;;;5056442;28;20382;-57
2023/12/21 07:40:44;;;;;;;;;;;24.40;30.00;;;;;;5068961;28;19928;-56
2023/12/21 07:43:12;;;;;;;;;;;24.50;30.20;;;;;;5071586;28;20382;-58
2023/12/21 07:45:39;;;;;;;;;;;24.50;30.10;;;;;;5074666;28;19928;-57
2023/12/21 07:48:06;;;;;;;;;;;24.60;30.20;;;;;;5072973;28;20301;-59
2023/12/21 07:50:33;;;;;;;;;;;24.60;30.10;;;;;;5057728;28;19928;-54
2023/12/21 07:53:00;;;;;;;;;;;24.70;30.20;;;;;;5068468;28;19957;-59
2023/12/21 07:55:27;;;;;;;;;;;24.70;30.10;;;;;;5071662;28;20061;-57
2023/12/21 07:57:54;;;;;;;;;;;24.70;30.60;;;;;;5053946;28;19929;-59
2023/12/21 08:00:21;;;;;;;;;;;24.80;30.00;;;;;;5068684;28;19924;-60
2023/12/21 08:02:48;;;;;;;;;;;24.80;30.00;;;;;;5065191;28;20332;-58
2023/12/21 08:05:16;;;;;;;;;;;24.90;30.00;;;;;;5066984;28;19932;-56
2023/12/21 08:07:43;;;;;;;;;;;24.90;30.00;;;;;;5036152;28;19928;-58
2023/12/21 08:10:10;;;;;;;;;;;24.90;30.00;;;;;;5069891;28;20385;-53
2023/12/21 08:12:37;;;;;;;;;;;25.00;30.00;;;;;;5067911;28;19933;-58
2023/12/21 08:15:04;;;;;;;;;;;25.00;29.90;;;;;;5074287;28;19930;-58
2023/12/21 08:17:32;;;;;;;;;;;25.10;30.00;;;;;;5070889;28;19970;-58
2023/12/21 08:19:59;;;;;;;;;;;25.10;30.00;;;;;;5059361;28;19924;-58
2023/12/21 08:22:26;;;;;;;;;;;25.10;30.00;;;;;;5071278;28;19932;-59
2023/12/21 08:24:54;;;;;;;;;;;25.10;29.90;;;;;;5073296;28;20385;-58
2023/12/21 08:27:21;;;;;;;;;;;25.20;29.90;;;;;;5071359;28;19931;-57
2023/12/21 08:29:48;;;;;;;;;;;25.30;29.90;;;;;;5073829;28;19930;-59
2023/12/21 08:32:15;;;;;;;;;;;25.30;29.80;;;;;;5071796;28;20011;-55
2023/12/21 08:34:42;;;;;;;;;;;25.30;29.70;;;;;;5069545;28;19933;-55
2023/12/21 08:37:11;;;;;;;;;;;25.40;29.60;;;;;;5071831;28;19932;-56
2023/12/21 08:39:39;;;;;;;;;;;25.40;29.60;;;;;;5072289;28;20019;-57
2023/12/21 08:42:08;;;;;;;;;;;25.40;29.60;;;;;;5065657;28;20107;-55
2023/12/21 08:44:36;;;;;;;;;;;25.40;29.60;;;;;;5068377;28;19955;-54
2023/12/21 08:47:04;;;;;;;;;;;25.50;29.60;;;;;;5069334;28;20352;-56
2023/12/21 08:49:31;;;;;;;;;;;25.50;29.60;;;;;;5064835;28;20015;-58
2023/12/21 08:51:59;;;;;;;;;;;25.50;29.70;;;;;;5054726;28;19924;-58
2023/12/21 08:54:26;;;;;;;;;;;25.60;29.60;;;;;;5068287;28;19976;-59
2023/12/21 08:56:53;;;;;;;;;;;25.60;29.50;;;;;;5074057;28;19934;-58
2023/12/21 08:59:20;;;;;;;;;;;25.60;29.60;;;;;;5069916;28;20388;-57
2023/12/21 09:01:47;;;;;;;;;;;25.60;29.80;;;;;;5067571;28;19958;-57
2023/12/21 09:04:14;;;;;;;;;;;25.60;29.80;;;;;;5071629;28;19925;-58
2023/12/21 09:06:41;;;;;;;;;;;25.60;29.80;;;;;;5069571;28;19943;-59
2023/12/21 09:09:08;;;;;;;;;;;25.60;29.90;;;;;;5053170;28;19928;-60
2023/12/21 09:11:35;;;;;;;;;;;25.60;29.80;;;;;;5071341;28;19929;-58
2023/12/21 09:14:02;;;;;;;;;;;25.60;30.00;;;;;;5072680;28;20023;-57
2023/12/21 09:16:29;;;;;;;;;;;25.60;29.90;;;;;;5071369;28;19925;-51
2023/12/21 09:18:57;;;;;;;;;;;25.60;29.90;;;;;;5070792;28;19929;-58
2023/12/21 09:21:24;;;;;;;;;;;25.60;29.90;;;;;;5068966;28;19968;-58
2023/12/21 09:23:51;;;;;;;;;;;25.70;30.00;;;;;;5069407;28;20365;-57
2023/12/21 09:26:18;;;;;;;;;;;25.70;30.00;;;;;;5070185;28;20005;-57
2023/12/21 09:28:45;;;;;;;;;;;25.70;30.00;;;;;;5074761;28;20393;-58
2023/12/21 09:31:12;;;;;;;;;;;25.70;30.00;;;;;;5065323;28;20384;-56
2023/12/21 09:33:40;;;;;;;;;;;25.70;30.00;;;;;;5065982;28;19932;-55
2023/12/21 09:36:09;;;;;;;;;;;25.70;30.00;;;;;;5064361;28;19925;-57
2023/12/21 09:38:36;;;;;;;;;;;25.80;30.00;;;;;;5066956;28;19939;-56
2023/12/21 09:41:07;;;;;;;;;;;25.80;30.10;;;;;;5063294;28;19932;-59
2023/12/21 09:43:36;;;;;;;;;;;25.80;30.00;;;;;;5069492;28;19944;-59
2023/12/21 09:46:03;;;;;;;;;;;25.90;30.00;;;;;;5073850;28;19928;-56
2023/12/21 09:48:31;;;;;;;;;;;25.90;29.90;;;;;;5070655;28;19931;-57
2023/12/21 09:51:02;;;;;;;;;;;25.90;29.90;;;;;;5066439;28;19928;-57
2023/12/21 09:53:30;;;;;;;;;;;26.00;30.10;;;;;;5067211;28;19935;-57
2023/12/21 09:55:59;;;;;;;;;;;26.00;30.00;;;;;;5069376;28;19925;-57
2023/12/21 09:58:26;;;;;;;;;;;26.00;29.90;;;;;;5069550;28;20381;-57
2023/12/21 10:00:53;;;;;;;;;;;26.00;30.00;;;;;;5068284;28;19929;-56
2023/12/21 10:03:20;;;;;;;;;;;26.10;30.10;;;;;;5070564;28;20016;-58
2023/12/21 10:05:48;;;;;;;;;;;26.10;30.10;;;;;;5069448;28;19932;-59
2023/12/21 10:08:18;;;;;;;;;;;26.10;30.30;;;;;;5065995;28;19939;-59
2023/12/21 10:10:45;;;;;;;;;;;26.10;30.10;;;;;;5071001;28;19932;-57
2023/12/21 10:13:12;;;;;;;;;;;26.10;30.00;;;;;;5068616;28;20748;-57
2023/12/21 10:15:40;;;;;;;;;;;26.10;30.00;;;;;;5055683;28;20395;-57
2023/12/21 10:18:08;;;;;;;;;;;26.10;29.90;;;;;;5069581;28;19936;-57
2023/12/21 10:20:35;;;;;;;;;;;26.10;29.80;;;;;;5070774;28;19936;-58
2023/12/21 10:23:03;;;;;;;;;;;26.10;29.80;;;;;;5073069;28;19931;-58
2023/12/21 10:25:30;;;;;;;;;;;26.20;29.90;;;;;;5065993;28;19930;-58
2023/12/21 10:27:57;;;;;;;;;;;26.20;30.00;;;;;;5068386;28;19967;-58
2023/12/21 10:30:24;;;;;;;;;;;26.20;30.00;;;;;;5068193;28;19978;-57
2023/12/21 10:32:55;;;;;;;;;;;26.30;29.90;;;;;;5068643;28;19932;-55
2023/12/21 10:35:25;;;;;;;;;;;26.30;29.80;;;;;;5065640;28;19931;-55
2023/12/21 10:37:53;;;;;;;;;;;26.40;29.90;;;;;;5068125;28;20006;-57
2023/12/21 10:40:23;;;;;;;;;;;26.40;30.00;;;;;;5064787;28;20301;-57
2023/12/21 10:42:51;;;;;;;;;;;26.40;29.70;;;;;;5048601;28;19958;-57
2023/12/21 10:45:19;;;;;;;;;;;26.40;29.90;;;;;;5066734;28;19960;-58
2023/12/21 10:48:05;;;;;;;;;;;26.40;30.00;;;;;;5068314;28;19934;-57
2023/12/21 10:50:33;;;;;;;;;;;26.50;29.90;;;;;;5064973;28;19928;-57
2023/12/21 10:53:00;;;;;;;;;;;26.40;30.00;;;;;;5051460;28;19924;-57
2023/12/21 10:55:28;;;;;;;;;;;26.40;30.00;;;;;;5069926;28;19946;-58
2023/12/21 10:57:56;;;;;;;;;;;26.40;29.80;;;;;;5067243;28;19929;-56
2023/12/21 11:00:23;;;;;;;;;;;26.40;29.80;;;;;;5066678;28;19925;-56
2023/12/21 11:02:51;;;;;;;;;;;26.40;29.90;;;;;;5070419;28;19932;-56
2023/12/21 11:05:22;;;;;;;;;;;26.40;29.90;;;;;;5064112;28;19932;-55
2023/12/21 11:07:49;;;;;;;;;;;26.40;29.80;;;;;;5062391;28;21329;-55
2023/12/21 11:10:17;;;;;;;;;;;26.30;29.60;;;;;;5064864;28;21214;-55
2023/12/21 11:12:44;;;;;;;;;;;26.30;29.60;;;;;;5069077;28;19977;-56
2023/12/21 11:15:13;;;;;;;;;;;26.30;29.60;;;;;;5068680;28;19925;-58
2023/12/21 11:17:41;;;;;;;;;;;26.20;29.60;;;;;;5063774;28;20379;-56
2023/12/21 11:20:11;;;;;;;;;;;26.20;29.60;;;;;;5065506;28;21397;-56
2023/12/21 11:22:39;;;;;;;;;;;26.20;29.70;;;;;;5060571;28;19925;-54
2023/12/21 11:25:11;;;;;;;;;;;26.20;29.70;;;;;;5067455;28;19975;-56
2023/12/21 11:27:42;;;;;;;;;;;26.10;29.70;;;;;;5068685;28;20417;-56
2023/12/21 11:30:14;;;;;;;;;;;26.10;29.80;;;;;;5066687;28;20402;-56
2023/12/21 11:32:42;;;;;;;;;;;26.10;29.90;;;;;;5067674;28;19938;-52
2023/12/21 11:35:18;;;;;;;;;;;26.10;29.80;;;;;;5068551;28;19924;-55
2023/12/21 11:37:50;;;;;;;;;;;26.10;30.00;;;;;;5068389;28;20036;-57
2023/12/21 11:40:17;;;;;;;;;;;26.10;29.90;;;;;;5070277;28;20022;-59
2023/12/21 11:42:48;;;;;;;;;;;26.10;29.90;;;;;;5069231;28;19932;-59
2023/12/21 11:45:23;;;;;;;;;;;26.00;30.00;;;;;;5063254;28;19929;-57
2023/12/21 11:47:52;;;;;;;;;;;26.10;29.90;;;;;;5065055;28;19933;-57
2023/12/21 11:50:20;;;;;;;;;;;26.10;29.80;;;;;;5067286;28;19939;-58
2023/12/21 11:52:48;;;;;;;;;;;26.10;29.80;;;;;;5066519;28;19960;-56
2023/12/21 11:55:27;;;;;;;;;;;26.10;29.80;;;;;;5065945;28;19978;-57
2023/12/21 11:58:15;;;;;;;;;;;26.10;29.80;;;;;;5067787;28;19936;-56
2023/12/21 12:00:43;;;;;;;;;;;26.10;29.70;;;;;;5068109;28;19970;-53
2023/12/21 12:03:11;;;;;;;;;;;26.20;29.70;;;;;;5068166;28;20645;-56
2023/12/21 12:05:38;;;;;;;;;;;26.20;29.80;;;;;;5069315;28;19925;-59
2023/12/21 12:08:06;;;;;;;;;;;26.20;29.50;;;;;;5067040;28;19971;-58
2023/12/21 12:10:33;;;;;;;;;;;26.20;29.70;;;;;;5069727;28;19950;-58
2023/12/21 12:13:04;;;;;;;;;;;26.30;29.80;;;;;;5052589;28;20008;-58
2023/12/21 12:15:31;;;;;;;;;;;26.30;29.70;;;;;;5049327;28;20019;-55
2023/12/21 12:18:01;;;;;;;;;;;26.30;29.50;;;;;;5068238;28;19925;-58
2023/12/21 12:20:28;;;;;;;;;;;26.30;29.30;;;;;;5071854;28;19925;-58
2023/12/21 12:22:55;;;;;;;;;;;26.40;29.20;;;;;;5072846;28;20347;-58
2023/12/21 12:25:23;;;;;;;;;;;26.40;29.20;;;;;;5073704;28;19930;-60
2023/12/21 12:27:50;;;;;;;;;;;26.40;29.10;;;;;;5072814;28;19968;-56
2023/12/21 12:30:18;;;;;;;;;;;26.40;29.10;;;;;;5072224;28;19976;-57
2023/12/21 12:32:45;;;;;;;;;;;26.40;29.10;;;;;;5069913;28;19932;-58
2023/12/21 12:35:13;;;;;;;;;;;26.40;29.00;;;;;;5058736;28;19925;-57
2023/12/21 12:37:40;;;;;;;;;;;26.40;29.10;;;;;;5066203;28;19928;-57
2023/12/21 12:40:07;;;;;;;;;;;26.40;29.00;;;;;;5071283;28;19934;-55
2023/12/21 12:42:35;;;;;;;;;;;26.50;29.00;;;;;;5067602;28;19924;-58
2023/12/21 12:45:03;;;;;;;;;;;26.50;29.00;;;;;;5073867;28;20324;-58
2023/12/21 12:47:31;;;;;;;;;;;26.40;29.00;;;;;;5072278;28;19932;-55
2023/12/21 12:49:58;;;;;;;;;;;26.50;29.00;;;;;;5072398;28;20369;-59
2023/12/21 12:52:26;;;;;;;;;;;26.50;29.10;;;;;;5062967;28;20083;-58
2023/12/21 12:54:53;;;;;;;;;;;26.50;29.10;;;;;;5070755;28;19924;-56
2023/12/21 12:57:24;;;;;;;;;;;26.60;29.00;;;;;;5060435;28;19924;-57
2023/12/21 12:59:51;;;;;;;;;;;26.60;29.00;;;;;;5068546;28;20435;-58
2023/12/21 13:02:18;;;;;;;;;;;26.60;29.00;;;;;;5070249;28;19925;-58
2023/12/21 13:04:45;;;;;;;;;;;26.60;29.00;;;;;;5071614;28;19924;-58
2023/12/21 13:07:12;;;;;;;;;;;26.60;29.00;;;;;;5072031;28;19971;-58
2023/12/21 13:09:39;;;;;;;;;;;26.60;28.90;;;;;;5072534;28;20293;-57
2023/12/21 13:12:06;;;;;;;;;;;26.60;29.00;;;;;;5073767;28;19924;-58
2023/12/21 13:14:33;;;;;;;;;;;26.60;28.90;;;;;;5071819;28;19946;-58
2023/12/21 13:17:00;;;;;;;;;;;26.60;28.90;;;;;;5067923;28;20427;-57
2023/12/21 13:19:27;;;;;;;;;;;26.60;28.90;;;;;;5068056;28;19932;-51
2023/12/21 13:21:55;;;;;;;;;;;26.60;29.50;;;;;;5065970;28;19931;-58
2023/12/21 13:24:22;;;;;;;;;;;26.60;29.50;;;;;;5069315;28;19985;-57
2023/12/21 13:26:50;;;;;;;;;;;26.60;29.30;;;;;;5071417;28;19924;-56
2023/12/21 13:29:18;;;;;;;;;;;26.60;29.10;;;;;;5069448;28;19966;-58
2023/12/21 13:31:45;;;;;;;;;;;26.60;29.00;;;;;;5069244;28;19936;-57
2023/12/21 13:34:13;;;;;;;;;;;26.60;28.90;;;;;;5064135;28;19924;-56
2023/12/21 13:36:40;;;;;;;;;;;26.60;29.00;;;;;;5073199;28;20019;-55
2023/12/21 13:39:08;;;;;;;;;;;26.60;29.10;;;;;;5071152;28;20335;-56
2023/12/21 13:41:35;;;;;;;;;;;26.50;29.10;;;;;;5070604;28;19924;-56
2023/12/21 13:44:04;;;;;;;;;;;26.50;29.10;;;;;;5067978;28;19932;-54
2023/12/21 13:46:38;;;;;;;;;;;26.60;29.10;;;;;;5071945;28;19925;-55
2023/12/21 13:49:06;;;;;;;;;;;26.50;29.00;;;;;;5073678;28;19931;-53
2023/12/21 13:51:33;;;;;;;;;;;26.50;29.50;;;;;;5072872;28;20397;-54
2023/12/21 13:54:00;;;;;;;;;;;26.50;29.10;;;;;;5073312;28;19924;-54
2023/12/21 13:56:27;;;;;;;;;;;26.50;29.10;;;;;;5073357;28;19976;-56
2023/12/21 13:58:54;;;;;;;;;;;26.50;29.20;;;;;;5072164;28;19928;-55
2023/12/21 14:01:22;;;;;;;;;;;26.50;29.20;;;;;;5073070;28;19924;-52
2023/12/21 14:03:50;;;;;;;;;;;26.50;29.10;;;;;;5073107;28;20319;-54
2023/12/21 14:06:17;;;;;;;;;;;26.50;29.00;;;;;;5073779;28;19928;-56
2023/12/21 14:08:44;;;;;;;;;;;26.50;28.90;;;;;;5072950;28;19928;-54
2023/12/21 14:11:11;;;;;;;;;;;26.50;29.00;;;;;;5073341;28;20032;-50
2023/12/21 14:13:38;;;;;;;;;;;26.50;28.90;;;;;;5073412;28;20024;-57
2023/12/21 14:16:05;;;;;;;;;;;26.50;29.00;;;;;;5055560;28;19978;-56
2023/12/21 14:18:32;;;;;;;;;;;26.50;29.10;;;;;;5073243;28;19951;-48